Time;durP1;ratioP1;P1;durP2;ratioP2;P2;SDS_P1;SDS_P2;PMS_P1;PMS_P2;Temp;Humidity;BMP_temperature;BMP_pressure;BME280_temperature;BME280_humidity;BME280_pressure;Samples;Min_cycle;Max_cycle;Signal;HPM_P1;HPM_P2
2022/07/31 00:00:38;;;;;;;7.32;3.83;;;19.10;99.90;;;;;;5094587;28;20053;-70
2022/07/31 00:03:03;;;;;;;5.57;3.38;;;19.00;99.90;;;;;;5093263;28;20027;-70
2022/07/31 00:05:29;;;;;;;5.13;3.80;;;19.00;99.90;;;;;;5094696;28;20036;-70
2022/07/31 00:07:55;;;;;;;7.13;4.50;;;19.00;99.90;;;;;;5093847;28;20036;-70
2022/07/31 00:10:21;;;;;;;8.63;3.70;;;19.00;99.90;;;;;;5094582;28;20039;-70
2022/07/31 00:12:46;;;;;;;6.53;4.00;;;19.00;99.90;;;;;;5094745;28;20028;-70
2022/07/31 00:15:12;;;;;;;7.60;4.00;;;19.00;99.90;;;;;;5091978;28;20494;-70
2022/07/31 00:17:39;;;;;;;7.35;3.92;;;19.00;99.90;;;;;;5076226;28;20039;-70
2022/07/31 00:20:05;;;;;;;5.95;4.28;;;18.90;99.90;;;;;;5094239;28;20046;-70
2022/07/31 00:22:31;;;;;;;6.50;4.60;;;18.90;99.90;;;;;;5094613;28;20066;-70
2022/07/31 00:24:57;;;;;;;7.30;4.80;;;18.90;99.90;;;;;;5093106;28;20068;-70
2022/07/31 00:27:22;;;;;;;6.95;4.25;;;18.80;99.90;;;;;;5094416;28;20036;-70
2022/07/31 00:29:49;;;;;;;7.53;4.95;;;18.80;99.90;;;;;;5094004;28;20036;-70
2022/07/31 00:32:15;;;;;;;7.47;5.03;;;18.80;99.90;;;;;;5093000;28;20047;-70
2022/07/31 00:34:43;;;;;;;8.60;4.68;;;18.80;99.90;;;;;;5093986;28;20036;-70
2022/07/31 00:37:09;;;;;;;4.70;4.30;;;18.80;99.90;;;;;;5092991;28;20044;-70
2022/07/31 00:39:35;;;;;;;7.45;4.70;;;18.80;99.90;;;;;;5093778;28;20032;-70
2022/07/31 00:42:01;;;;;;;8.13;4.65;;;18.70;99.90;;;;;;5092754;28;20036;-70
2022/07/31 00:44:27;;;;;;;7.57;5.20;;;18.70;99.90;;;;;;5094146;28;20093;-70
2022/07/31 00:46:53;;;;;;;8.75;4.72;;;18.70;99.90;;;;;;5093954;28;20048;-70
2022/07/31 00:49:19;;;;;;;6.40;4.43;;;18.60;99.90;;;;;;5093543;28;20489;-70
2022/07/31 00:51:44;;;;;;;5.68;4.43;;;18.70;99.90;;;;;;5093879;28;20435;-70
2022/07/31 00:54:10;;;;;;;10.18;5.28;;;18.70;99.90;;;;;;5093933;28;20032;-70
2022/07/31 00:56:36;;;;;;;6.63;4.95;;;18.70;99.90;;;;;;5093926;28;20032;-70
2022/07/31 00:59:02;;;;;;;5.78;4.75;;;18.60;99.90;;;;;;5093856;28;20394;-70
2022/07/31 01:01:29;;;;;;;8.90;4.90;;;18.60;99.90;;;;;;5093334;28;20044;-70
2022/07/31 01:03:55;;;;;;;7.68;4.90;;;18.70;99.90;;;;;;5093682;28;20101;-70
2022/07/31 01:06:21;;;;;;;8.50;4.75;;;18.60;99.90;;;;;;5093752;28;20044;-70
2022/07/31 01:08:47;;;;;;;9.82;4.60;;;18.50;99.90;;;;;;5093692;28;20036;-70
2022/07/31 01:11:22;;;;;;;7.50;4.72;;;18.60;99.90;;;;;;5092123;28;20057;-70
2022/07/31 01:13:52;;;;;;;8.25;5.00;;;18.60;99.90;;;;;;5093524;28;20044;-70
2022/07/31 01:16:20;;;;;;;7.30;5.05;;;18.50;99.90;;;;;;5093341;28;20375;-70
2022/07/31 01:18:48;;;;;;;8.77;5.05;;;18.50;99.90;;;;;;5093635;28;20432;-70
2022/07/31 01:21:25;;;;;;;8.25;4.78;;;18.50;99.90;;;;;;5093113;28;20070;-70
2022/07/31 01:24:08;;;;;;;10.05;5.22;;;18.50;99.90;;;;;;5093324;28;20511;-70
2022/07/31 01:26:43;;;;;;;9.30;5.10;;;18.40;99.90;;;;;;5092809;28;20047;-70
2022/07/31 01:29:31;;;;;;;9.13;5.50;;;18.40;99.90;;;;;;5092132;28;20040;-70
2022/07/31 01:32:06;;;;;;;5.93;5.03;;;18.40;99.90;;;;;;5093245;28;20035;-70
2022/07/31 01:34:47;;;;;;;7.75;5.75;;;18.30;99.90;;;;;;5093101;28;20097;-70
2022/07/31 01:37:22;;;;;;;5.63;4.57;;;18.30;99.90;;;;;;5092948;28;20115;-70
2022/07/31 01:39:58;;;;;;;7.00;4.72;;;18.30;99.90;;;;;;5091393;28;20036;-70
2022/07/31 01:42:25;;;;;;;6.55;4.97;;;18.20;99.90;;;;;;5092962;28;20044;-70
2022/07/31 01:44:56;;;;;;;7.68;4.47;;;18.20;99.90;;;;;;5091656;28;20063;-70
2022/07/31 01:47:24;;;;;;;5.53;4.82;;;18.20;99.90;;;;;;5091629;28;20089;-70
2022/07/31 01:49:51;;;;;;;8.40;5.60;;;18.10;99.90;;;;;;5092784;28;20050;-70
2022/07/31 01:52:19;;;;;;;5.88;4.60;;;18.10;99.90;;;;;;5091282;28;20050;-70
2022/07/31 01:54:48;;;;;;;8.10;4.80;;;18.00;99.90;;;;;;5092671;28;20043;-70
2022/07/31 01:57:15;;;;;;;6.78;4.80;;;18.10;99.90;;;;;;5091639;28;20076;-70
2022/07/31 01:59:42;;;;;;;6.82;4.70;;;18.10;99.90;;;;;;5092408;28;20032;-70
2022/07/31 02:02:08;;;;;;;8.93;4.75;;;17.90;99.90;;;;;;5074398;28;20440;-70
2022/07/31 02:04:34;;;;;;;6.55;5.20;;;18.00;99.90;;;;;;5091471;28;20038;-70
2022/07/31 02:07:03;;;;;;;8.85;5.18;;;18.00;99.90;;;;;;5092493;28;20081;-70
2022/07/31 02:09:30;;;;;;;9.25;5.30;;;18.00;99.90;;;;;;5092243;28;20032;-70
2022/07/31 02:11:57;;;;;;;7.68;4.60;;;18.10;99.90;;;;;;5091147;28;20032;-70
2022/07/31 02:14:23;;;;;;;5.15;4.50;;;18.00;99.90;;;;;;5092338;28;20093;-70
2022/07/31 02:16:49;;;;;;;7.95;4.40;;;18.00;99.90;;;;;;5092185;28;20114;-70
2022/07/31 02:19:16;;;;;;;6.68;4.97;;;18.10;99.90;;;;;;5090706;28;20443;-70
2022/07/31 02:21:41;;;;;;;9.02;4.93;;;18.10;99.90;;;;;;5092544;28;20385;-70
2022/07/31 02:24:08;;;;;;;5.45;4.30;;;17.90;99.90;;;;;;5091142;28;20032;-70
2022/07/31 02:26:36;;;;;;;5.60;4.50;;;18.00;99.90;;;;;;5092290;28;20047;-70
2022/07/31 02:29:05;;;;;;;8.60;4.35;;;18.00;99.90;;;;;;5092034;28;20076;-70
2022/07/31 02:31:32;;;;;;;5.85;4.57;;;18.00;99.90;;;;;;5091754;28;20121;-70
2022/07/31 02:33:58;;;;;;;8.75;4.57;;;18.00;99.90;;;;;;5092127;28;20067;-70
2022/07/31 02:36:26;;;;;;;5.30;4.70;;;18.00;99.90;;;;;;5092158;28;20405;-70
2022/07/31 02:38:54;;;;;;;9.02;4.70;;;18.00;99.90;;;;;;5090012;28;20468;-70
2022/07/31 02:41:20;;;;;;;5.45;4.43;;;17.90;99.90;;;;;;5090427;28;20405;-70
2022/07/31 02:43:47;;;;;;;6.68;4.10;;;17.90;99.90;;;;;;5091808;28;20036;-70
2022/07/31 02:46:14;;;;;;;8.57;4.78;;;17.90;99.90;;;;;;5092061;28;20044;-70
2022/07/31 02:48:40;;;;;;;6.60;4.28;;;17.90;99.90;;;;;;5091854;28;20504;-70
2022/07/31 02:51:07;;;;;;;5.88;4.55;;;17.90;99.90;;;;;;5091504;28;20040;-70
2022/07/31 02:53:33;;;;;;;6.70;4.63;;;17.90;99.90;;;;;;5091856;28;20104;-70
2022/07/31 02:56:00;;;;;;;6.93;4.22;;;17.90;99.90;;;;;;5091801;28;20036;-70
2022/07/31 02:58:26;;;;;;;8.82;5.22;;;17.90;99.90;;;;;;5091809;28;20048;-70
2022/07/31 03:01:04;;;;;;;6.25;4.72;;;18.00;99.90;;;;;;5091611;28;20032;-70
2022/07/31 03:03:30;;;;;;;6.13;4.10;;;17.90;99.90;;;;;;5091927;28;20044;-70
2022/07/31 03:05:56;;;;;;;6.05;3.80;;;17.90;99.90;;;;;;5091737;28;20038;-70
2022/07/31 03:08:21;;;;;;;6.88;3.63;;;17.90;99.90;;;;;;5091844;28;20028;-70
2022/07/31 03:10:47;;;;;;;6.55;4.53;;;17.90;99.90;;;;;;5091127;28;20032;-70
2022/07/31 03:13:14;;;;;;;4.53;3.60;;;17.90;99.90;;;;;;5091874;28;20062;-70
2022/07/31 03:15:41;;;;;;;6.88;4.05;;;17.90;99.90;;;;;;5091684;28;20040;-70
2022/07/31 03:18:10;;;;;;;6.80;3.67;;;17.90;99.90;;;;;;5091767;28;20090;-70
2022/07/31 03:20:37;;;;;;;6.97;4.35;;;17.90;99.90;;;;;;5090066;28;20503;-70
2022/07/31 03:23:03;;;;;;;8.48;4.47;;;17.90;99.90;;;;;;5091544;28;20055;-70
2022/07/31 03:25:31;;;;;;;6.00;4.32;;;17.90;99.90;;;;;;5091390;28;20089;-70
2022/07/31 03:27:58;;;;;;;9.55;4.13;;;17.80;99.90;;;;;;5091728;28;20044;-70
2022/07/31 03:30:25;;;;;;;4.10;3.70;;;17.80;99.90;;;;;;5089894;28;20055;-70
2022/07/31 03:32:55;;;;;;;5.60;3.78;;;17.80;99.90;;;;;;5090277;28;20507;-70
2022/07/31 03:35:22;;;;;;;11.02;4.13;;;17.90;99.90;;;;;;5091547;28;20040;-70
2022/07/31 03:37:48;;;;;;;8.55;4.25;;;17.90;99.90;;;;;;5091392;28;20032;-70
2022/07/31 03:40:14;;;;;;;7.38;3.75;;;17.90;99.90;;;;;;5091063;28;20040;-70
2022/07/31 03:42:40;;;;;;;5.93;3.58;;;17.90;99.90;;;;;;5091454;28;20032;-70
2022/07/31 03:45:07;;;;;;;5.25;3.50;;;17.90;99.90;;;;;;5091326;28;20089;-70
2022/07/31 03:47:33;;;;;;;7.70;3.55;;;17.90;99.90;;;;;;5091461;28;20040;-70
2022/07/31 03:50:00;;;;;;;4.90;4.28;;;17.90;99.90;;;;;;5091023;28;20089;-70
2022/07/31 03:52:27;;;;;;;6.53;3.50;;;17.90;99.90;;;;;;5094812;28;20524;-70
2022/07/31 03:54:52;;;;;;;6.55;3.53;;;17.80;99.90;;;;;;5095140;28;20118;-70
2022/07/31 03:57:19;;;;;;;4.00;3.53;;;17.80;99.90;;;;;;5095132;28;20508;-70
2022/07/31 03:59:46;;;;;;;5.30;3.22;;;17.70;99.90;;;;;;5094740;28;20047;-70
2022/07/31 04:02:11;;;;;;;5.72;3.80;;;17.80;99.90;;;;;;5094938;28;20032;-70
2022/07/31 04:04:37;;;;;;;4.28;3.25;;;17.70;99.90;;;;;;5094792;28;20043;-70
2022/07/31 04:07:04;;;;;;;6.40;4.13;;;17.70;99.90;;;;;;5094742;28;20051;-70
2022/07/31 04:09:30;;;;;;;4.55;3.30;;;17.70;99.90;;;;;;5094725;28;20059;-70
2022/07/31 04:11:56;;;;;;;6.05;4.10;;;17.70;99.90;;;;;;5094779;28;20040;-70
2022/07/31 04:14:22;;;;;;;8.90;4.05;;;17.60;99.90;;;;;;5094740;28;20042;-70
2022/07/31 04:16:48;;;;;;;7.97;3.92;;;17.50;99.90;;;;;;5094736;28;20502;-70
2022/07/31 04:19:14;;;;;;;7.95;4.05;;;17.40;99.90;;;;;;5094337;28;20064;-70
2022/07/31 04:21:39;;;;;;;4.53;3.97;;;17.50;99.90;;;;;;5094378;28;20123;-70
2022/07/31 04:24:06;;;;;;;6.15;4.18;;;17.50;99.90;;;;;;5094602;28;20481;-70
2022/07/31 04:26:32;;;;;;;6.60;4.28;;;17.50;99.90;;;;;;5094578;28;20089;-70
2022/07/31 04:28:57;;;;;;;8.68;3.90;;;17.50;99.90;;;;;;5094410;28;20035;-70
2022/07/31 04:31:23;;;;;;;4.60;3.95;;;17.50;99.90;;;;;;5094014;28;20412;-70
2022/07/31 04:33:49;;;;;;;6.97;3.92;;;17.60;99.90;;;;;;5094186;28;20108;-70
2022/07/31 04:36:16;;;;;;;5.28;4.68;;;17.60;99.90;;;;;;5094167;28;20582;-70
2022/07/31 04:38:42;;;;;;;6.30;4.32;;;17.70;99.90;;;;;;5094445;28;20067;-70
2022/07/31 04:41:07;;;;;;;8.70;4.10;;;17.70;99.90;;;;;;5093919;28;20510;-70
2022/07/31 04:43:33;;;;;;;8.00;4.20;;;17.70;99.90;;;;;;5094144;28;20085;-70
2022/07/31 04:45:59;;;;;;;4.50;3.72;;;17.80;99.90;;;;;;5094136;28;20507;-70
2022/07/31 04:48:24;;;;;;;7.32;4.22;;;17.90;99.90;;;;;;5093967;28;20036;-70
2022/07/31 04:50:50;;;;;;;4.72;3.92;;;17.80;99.90;;;;;;5093406;28;20113;-70
2022/07/31 04:53:16;;;;;;;6.80;4.03;;;17.90;99.90;;;;;;5093932;28;20040;-70
2022/07/31 04:55:41;;;;;;;6.68;4.32;;;18.00;99.90;;;;;;5092584;28;20043;-70
2022/07/31 04:58:07;;;;;;;5.85;3.85;;;18.00;99.90;;;;;;5093896;28;20032;-70
2022/07/31 05:00:33;;;;;;;5.28;4.35;;;18.10;99.90;;;;;;5092167;28;20051;-70
2022/07/31 05:02:58;;;;;;;5.03;3.70;;;18.20;99.90;;;;;;5091715;28;20040;-70
2022/07/31 05:05:24;;;;;;;6.22;4.05;;;18.30;99.90;;;;;;5092351;28;20044;-70
2022/07/31 05:07:49;;;;;;;7.03;4.07;;;18.30;99.90;;;;;;5092341;28;20416;-70
2022/07/31 05:12:59;;;;;;;5.75;3.33;;;18.30;99.90;;;;;;5093403;28;20425;-70
2022/07/31 05:15:25;;;;;;;5.32;3.30;;;18.20;99.90;;;;;;5093396;28;20086;-70
2022/07/31 05:17:51;;;;;;;6.50;3.28;;;18.30;99.90;;;;;;5093408;28;20032;-70
2022/07/31 05:20:16;;;;;;;7.40;3.35;;;18.30;99.90;;;;;;5093230;28;20032;-70
2022/07/31 05:22:42;;;;;;;4.60;3.05;;;18.40;99.90;;;;;;5093238;28;20435;-70
2022/07/31 05:25:08;;;;;;;6.53;3.63;;;18.40;99.90;;;;;;5093426;28;20067;-70
2022/07/31 05:27:33;;;;;;;4.15;3.40;;;18.50;99.90;;;;;;5093174;28;20046;-70
2022/07/31 05:29:59;;;;;;;4.53;3.78;;;18.50;99.90;;;;;;5093006;28;20044;-70
2022/07/31 05:32:24;;;;;;;6.13;3.40;;;18.70;99.90;;;;;;5092972;28;20071;-70
2022/07/31 05:34:50;;;;;;;5.60;3.72;;;18.70;99.90;;;;;;5092927;28;20040;-70
2022/07/31 05:37:16;;;;;;;6.28;4.00;;;18.80;99.90;;;;;;5091850;28;20505;-70
2022/07/31 05:39:41;;;;;;;5.25;3.88;;;18.80;99.90;;;;;;5092766;28;20077;-70
2022/07/31 05:42:07;;;;;;;4.70;3.75;;;18.80;99.90;;;;;;5092928;28;20064;-70
2022/07/31 05:44:32;;;;;;;8.07;4.13;;;18.80;99.90;;;;;;5092959;28;20048;-70
2022/07/31 05:46:58;;;;;;;5.60;3.88;;;18.80;99.90;;;;;;5092861;28;20043;-70
2022/07/31 05:49:25;;;;;;;5.82;3.47;;;18.80;99.90;;;;;;5092519;28;20044;-70
2022/07/31 05:51:53;;;;;;;7.35;3.78;;;19.00;99.90;;;;;;5102736;22;20045;-70
2022/07/31 05:54:19;;;;;;;4.75;3.10;;;18.90;99.90;;;;;;5072517;28;20045;-71
2022/07/31 05:56:45;;;;;;;5.80;3.17;;;18.90;99.90;;;;;;5072479;28;20123;-70
2022/07/31 05:59:10;;;;;;;4.25;3.17;;;18.90;99.90;;;;;;5071247;28;20472;-71
2022/07/31 06:01:36;;;;;;;4.55;3.50;;;19.00;99.90;;;;;;5071701;28;20455;-70
2022/07/31 06:04:01;;;;;;;3.95;3.20;;;19.00;99.90;;;;;;5072554;28;20040;-70
2022/07/31 06:06:27;;;;;;;7.60;3.67;;;19.00;99.90;;;;;;5054514;28;20119;-71
2022/07/31 06:08:53;;;;;;;4.32;3.45;;;18.90;99.90;;;;;;5072137;28;20563;-70
2022/07/31 06:11:19;;;;;;;6.22;3.72;;;19.00;99.90;;;;;;5053928;28;20082;-71
2022/07/31 06:13:44;;;;;;;9.82;4.28;;;18.90;99.90;;;;;;5054017;28;20044;-70
2022/07/31 06:16:14;;;;;;;9.50;3.83;;;19.00;99.90;;;;;;5054158;28;20060;-71
2022/07/31 06:18:40;;;;;;;5.65;3.22;;;19.00;99.90;;;;;;5054358;28;20040;-70
2022/07/31 06:21:06;;;;;;;4.35;3.58;;;19.00;99.90;;;;;;5053785;28;20037;-71
2022/07/31 06:23:31;;;;;;;7.40;3.33;;;19.10;99.90;;;;;;5072093;28;20055;-70
2022/07/31 06:25:57;;;;;;;5.32;3.50;;;19.00;99.90;;;;;;5071985;28;20043;-71
2022/07/31 06:28:22;;;;;;;5.22;3.65;;;19.10;99.90;;;;;;5071880;28;20052;-70
2022/07/31 06:30:48;;;;;;;4.40;3.58;;;19.10;99.90;;;;;;5071546;28;20413;-71
2022/07/31 06:33:14;;;;;;;4.43;3.42;;;19.10;99.90;;;;;;5071957;28;20040;-72
2022/07/31 06:35:39;;;;;;;5.22;3.60;;;19.20;99.90;;;;;;5053827;28;20048;-72
2022/07/31 06:38:05;;;;;;;4.82;3.13;;;19.20;99.90;;;;;;5054096;28;20051;-71
2022/07/31 06:40:30;;;;;;;4.90;3.53;;;19.10;99.90;;;;;;5071576;28;20032;-72
2022/07/31 06:42:56;;;;;;;8.75;3.75;;;19.20;99.90;;;;;;5071719;28;20121;-72
2022/07/31 06:45:21;;;;;;;6.07;3.70;;;19.30;99.90;;;;;;5071667;28;20043;-72
2022/07/31 06:47:47;;;;;;;5.60;3.08;;;19.30;99.90;;;;;;5071895;28;20054;-71
2022/07/31 06:50:13;;;;;;;4.28;3.53;;;19.40;99.90;;;;;;5071377;28;20044;-72
2022/07/31 06:52:38;;;;;;;5.88;3.70;;;19.40;99.90;;;;;;5036958;28;20037;-71
2022/07/31 06:55:05;;;;;;;3.78;3.20;;;19.50;99.90;;;;;;5071577;28;20048;-72
2022/07/31 06:57:31;;;;;;;4.25;3.63;;;19.60;99.90;;;;;;5053631;28;20093;-72
2022/07/31 06:59:57;;;;;;;4.95;3.88;;;19.60;99.90;;;;;;5071232;28;20037;-73
2022/07/31 07:02:22;;;;;;;6.03;3.83;;;19.70;99.90;;;;;;5053566;28;20028;-71
2022/07/31 07:04:48;;;;;;;7.15;3.83;;;19.70;99.90;;;;;;5071645;28;20033;-71
2022/07/31 07:07:13;;;;;;;7.45;3.95;;;19.70;99.90;;;;;;5071561;28;20036;-71
2022/07/31 07:09:39;;;;;;;5.22;3.75;;;19.80;99.90;;;;;;5071201;28;20054;-71
2022/07/31 07:12:05;;;;;;;5.60;3.85;;;19.80;99.90;;;;;;5053443;28;20079;-71
2022/07/31 07:14:30;;;;;;;6.70;4.13;;;19.70;99.90;;;;;;5071262;28;20090;-71
2022/07/31 07:16:56;;;;;;;5.32;4.13;;;19.80;99.90;;;;;;5071628;28;20041;-71
2022/07/31 07:19:22;;;;;;;6.03;3.80;;;19.80;99.90;;;;;;5053126;28;20045;-71
2022/07/31 07:21:47;;;;;;;6.13;4.15;;;19.80;99.90;;;;;;5053635;28;20490;-71
2022/07/31 07:24:13;;;;;;;7.28;4.60;;;19.70;99.90;;;;;;5071353;28;20051;-71
2022/07/31 07:26:38;;;;;;;4.45;3.88;;;19.80;99.90;;;;;;5057124;28;20105;-72
2022/07/31 07:29:04;;;;;;;5.32;4.20;;;19.80;99.90;;;;;;5056669;28;20029;-71
2022/07/31 07:31:29;;;;;;;7.30;4.40;;;19.90;99.90;;;;;;5074470;28;20560;-71
2022/07/31 07:33:55;;;;;;;5.82;4.18;;;19.90;99.90;;;;;;5074690;28;20051;-71
2022/07/31 07:36:21;;;;;;;9.38;3.88;;;20.00;99.90;;;;;;5074559;28;20387;-71
2022/07/31 07:38:47;;;;;;;6.22;4.15;;;20.00;99.90;;;;;;5074629;28;20036;-71
2022/07/31 07:41:12;;;;;;;6.35;3.97;;;20.10;99.90;;;;;;5074270;28;20036;-71
2022/07/31 07:43:38;;;;;;;6.30;4.00;;;20.20;99.90;;;;;;5074473;28;20103;-71
2022/07/31 07:46:03;;;;;;;5.93;3.97;;;20.20;99.90;;;;;;5057182;28;20044;-71
2022/07/31 07:48:29;;;;;;;11.93;4.50;;;20.20;99.90;;;;;;5075148;28;20032;-71
2022/07/31 07:50:54;;;;;;;5.32;3.63;;;20.30;99.90;;;;;;5074739;28;20071;-71
2022/07/31 07:53:20;;;;;;;8.23;4.28;;;20.30;99.90;;;;;;5074246;28;20043;-71
2022/07/31 07:55:46;;;;;;;9.20;3.92;;;20.30;99.90;;;;;;5056038;28;20056;-71
2022/07/31 07:58:11;;;;;;;6.63;4.18;;;20.40;99.90;;;;;;5073711;28;20040;-71
2022/07/31 08:00:37;;;;;;;5.68;4.63;;;20.50;99.90;;;;;;5052529;28;20064;-72
2022/07/31 08:03:02;;;;;;;4.93;4.00;;;20.50;99.90;;;;;;5065867;28;20044;-70
2022/07/31 08:05:28;;;;;;;5.75;4.57;;;20.60;99.90;;;;;;5077000;28;20135;-70
2022/07/31 08:07:53;;;;;;;5.88;4.95;;;20.60;99.90;;;;;;5056164;28;20085;-71
2022/07/31 08:10:19;;;;;;;7.75;4.45;;;20.70;99.90;;;;;;5073873;28;20039;-71
2022/07/31 08:12:45;;;;;;;14.98;5.28;;;20.80;99.90;;;;;;5055993;28;20119;-71
2022/07/31 08:15:11;;;;;;;6.57;5.22;;;20.90;99.90;;;;;;5074150;28;20048;-70
2022/07/31 08:17:36;;;;;;;6.88;4.82;;;21.20;99.90;;;;;;5074068;28;20093;-71
2022/07/31 08:20:03;;;;;;;9.05;5.28;;;21.30;99.90;;;;;;5073680;28;20490;-71
2022/07/31 08:22:28;;;;;;;6.50;4.72;;;21.40;99.90;;;;;;5073964;28;20032;-71
2022/07/31 08:24:55;;;;;;;9.10;5.20;;;21.60;99.90;;;;;;5074064;28;20081;-71
2022/07/31 08:27:24;;;;;;;5.10;4.38;;;21.80;99.40;;;;;;5055637;28;20040;-70
2022/07/31 08:29:54;;;;;;;6.60;4.65;;;22.10;99.50;;;;;;5073629;28;20041;-71
2022/07/31 08:32:21;;;;;;;7.25;5.50;;;22.30;99.70;;;;;;5073639;28;20032;-70
2022/07/31 08:34:46;;;;;;;7.95;5.45;;;22.30;99.60;;;;;;5073538;28;20071;-72
2022/07/31 08:37:12;;;;;;;7.10;5.70;;;22.30;99.30;;;;;;5054512;28;20041;-73
2022/07/31 08:39:38;;;;;;;7.28;4.70;;;22.20;98.30;;;;;;5073210;28;20033;-71
2022/07/31 08:42:07;;;;;;;7.18;4.97;;;22.30;99.00;;;;;;5055671;28;20094;-71
2022/07/31 08:44:38;;;;;;;6.95;4.90;;;22.30;99.50;;;;;;5073626;28;20032;-71
2022/07/31 08:47:13;;;;;;;8.50;5.97;;;22.40;99.70;;;;;;5073548;28;20460;-71
2022/07/31 08:49:41;;;;;;;10.15;6.20;;;22.30;99.10;;;;;;5055319;28;20032;-70
2022/07/31 08:52:09;;;;;;;9.10;6.95;;;22.10;99.00;;;;;;5073069;28;20044;-71
2022/07/31 08:54:36;;;;;;;8.15;6.25;;;22.00;99.10;;;;;;5072960;28;20032;-71
2022/07/31 08:57:02;;;;;;;9.88;6.32;;;21.80;99.90;;;;;;5073611;28;20033;-71
2022/07/31 08:59:28;;;;;;;7.55;6.32;;;21.60;99.90;;;;;;5072893;28;20605;-70
2022/07/31 09:01:55;;;;;;;10.18;7.10;;;21.60;99.90;;;;;;5073322;28;20036;-71
2022/07/31 09:04:22;;;;;;;7.45;6.68;;;21.50;99.90;;;;;;5073530;28;20115;-70
2022/07/31 09:06:48;;;;;;;10.30;6.25;;;21.40;99.90;;;;;;5073271;28;20047;-71
2022/07/31 09:09:16;;;;;;;8.02;6.22;;;21.40;99.90;;;;;;5073105;28;20041;-71
2022/07/31 09:11:49;;;;;;;9.50;6.10;;;21.40;99.90;;;;;;5038853;28;20044;-71
2022/07/31 09:14:27;;;;;;;11.57;6.45;;;21.20;99.90;;;;;;5055605;28;20410;-71
2022/07/31 09:16:54;;;;;;;11.20;7.15;;;21.10;99.90;;;;;;5073102;28;20028;-71
2022/07/31 09:19:22;;;;;;;10.55;6.63;;;21.00;99.90;;;;;;5072851;28;20571;-70
2022/07/31 09:21:48;;;;;;;10.32;6.95;;;20.90;99.90;;;;;;5072868;28;20043;-71
2022/07/31 09:24:27;;;;;;;11.27;8.00;;;20.80;99.90;;;;;;5073242;28;20040;-71
2022/07/31 09:27:04;;;;;;;12.20;7.65;;;20.80;99.90;;;;;;5073164;28;20047;-71
2022/07/31 09:29:34;;;;;;;10.57;8.85;;;20.70;99.90;;;;;;5071991;28;20379;-70
2022/07/31 09:32:18;;;;;;;12.77;8.30;;;20.70;99.90;;;;;;5072631;28;20116;-70
2022/07/31 09:34:44;;;;;;;12.32;8.88;;;20.70;99.90;;;;;;5072798;28;20121;-71
2022/07/31 09:37:16;;;;;;;11.18;8.93;;;20.50;99.90;;;;;;5072578;28;20040;-71
2022/07/31 09:39:51;;;;;;;12.23;9.30;;;20.70;99.90;;;;;;5072596;28;20032;-70
2022/07/31 09:42:17;;;;;;;11.43;9.50;;;20.50;99.90;;;;;;5072266;28;20044;-71
2022/07/31 09:44:45;;;;;;;12.20;9.75;;;20.60;99.90;;;;;;5071127;28;20040;-71
2022/07/31 09:47:28;;;;;;;12.90;10.10;;;20.40;99.90;;;;;;5071637;28;20458;-70
2022/07/31 09:49:58;;;;;;;12.13;10.43;;;20.50;99.90;;;;;;5070801;28;20044;-70
2022/07/31 09:52:25;;;;;;;13.13;10.73;;;20.60;99.90;;;;;;5069884;28;20054;-71
2022/07/31 09:55:14;;;;;;;13.65;11.15;;;20.60;99.90;;;;;;5071937;28;20037;-71
2022/07/31 09:57:53;;;;;;;15.82;12.35;;;20.50;99.90;;;;;;5065732;28;20045;-70
2022/07/31 10:00:20;;;;;;;14.23;10.80;;;20.30;99.90;;;;;;5068092;28;20050;-70
2022/07/31 10:02:48;;;;;;;15.48;11.65;;;20.40;99.90;;;;;;5071697;28;20040;-70
2022/07/31 10:05:14;;;;;;;14.60;11.88;;;20.50;99.90;;;;;;5072000;28;20185;-71
2022/07/31 10:07:41;;;;;;;13.93;12.40;;;20.40;99.90;;;;;;5053982;28;20059;-71
2022/07/31 10:10:07;;;;;;;14.85;12.15;;;20.40;99.90;;;;;;5053649;28;20072;-72
2022/07/31 10:12:39;;;;;;;18.75;12.57;;;20.20;99.90;;;;;;5053802;28;20036;-71
2022/07/31 10:15:08;;;;;;;15.02;12.55;;;20.00;99.90;;;;;;5071713;28;20083;-70
2022/07/31 10:17:39;;;;;;;14.15;11.65;;;20.40;99.90;;;;;;5071851;28;20494;-70
2022/07/31 10:20:07;;;;;;;18.98;11.57;;;20.10;99.90;;;;;;5071543;28;20047;-71
2022/07/31 10:22:39;;;;;;;18.50;12.25;;;20.40;99.90;;;;;;5040778;28;20134;-70
2022/07/31 10:25:07;;;;;;;16.90;12.73;;;20.10;99.90;;;;;;5037925;28;20090;-70
2022/07/31 10:27:34;;;;;;;16.05;13.43;;;20.50;99.90;;;;;;5036455;28;20051;-70
2022/07/31 10:30:00;;;;;;;20.25;13.43;;;20.50;99.90;;;;;;5071119;28;20079;-70
2022/07/31 10:32:26;;;;;;;16.17;13.63;;;20.40;99.90;;;;;;5053195;28;20044;-70
2022/07/31 10:34:52;;;;;;;18.73;15.35;;;20.50;99.90;;;;;;5053600;28;20048;-71
2022/07/31 10:37:23;;;;;;;16.48;14.45;;;20.60;99.90;;;;;;5053688;28;20036;-72
2022/07/31 10:40:05;;;;;;;15.75;14.07;;;20.70;99.90;;;;;;5053379;28;20036;-70
2022/07/31 10:42:47;;;;;;;16.20;14.15;;;20.50;99.90;;;;;;5071177;28;20040;-70
2022/07/31 10:45:13;;;;;;;21.30;15.05;;;20.60;99.90;;;;;;5071498;28;20123;-70
2022/07/31 10:47:39;;;;;;;17.20;15.05;;;20.50;99.90;;;;;;5053209;28;20040;-70
2022/07/31 10:50:05;;;;;;;19.00;15.05;;;20.70;99.90;;;;;;5053088;28;20055;-70
2022/07/31 10:52:36;;;;;;;15.65;13.25;;;20.50;99.90;;;;;;5053470;28;20048;-71
2022/07/31 10:55:13;;;;;;;18.58;15.45;;;20.40;99.90;;;;;;5053374;28;20051;-71
2022/07/31 10:57:39;;;;;;;20.23;14.57;;;20.30;99.90;;;;;;5053381;28;20076;-70
2022/07/31 11:00:12;;;;;;;16.98;13.05;;;20.30;99.90;;;;;;5070334;28;20651;-70
2022/07/31 11:02:38;;;;;;;19.70;15.18;;;20.40;99.90;;;;;;5070497;28;20041;-72
2022/07/31 11:05:26;;;;;;;19.65;13.88;;;20.40;99.90;;;;;;5052742;28;20075;-71
2022/07/31 11:08:03;;;;;;;17.15;13.55;;;20.30;99.90;;;;;;5068805;28;20102;-70
2022/07/31 11:10:30;;;;;;;16.08;13.48;;;20.40;99.90;;;;;;5069855;28;20040;-73
2022/07/31 11:13:11;;;;;;;14.55;12.95;;;20.40;99.90;;;;;;5052935;28;20111;-70
2022/07/31 11:15:37;;;;;;;19.30;13.75;;;20.30;99.90;;;;;;5069531;28;20120;-70
2022/07/31 11:18:12;;;;;;;21.15;14.43;;;20.30;99.90;;;;;;5053181;28;20123;-70
2022/07/31 11:20:37;;;;;;;13.95;12.18;;;20.60;99.90;;;;;;5053085;28;20120;-71
2022/07/31 11:23:05;;;;;;;17.38;12.30;;;20.20;99.90;;;;;;5071494;28;20477;-70
2022/07/31 11:25:34;;;;;;;15.13;11.95;;;20.30;99.90;;;;;;5053420;28;20045;-70
2022/07/31 11:28:23;;;;;;;14.88;11.50;;;20.10;99.90;;;;;;5071348;28;20041;-70
2022/07/31 11:30:55;;;;;;;20.17;12.43;;;20.30;99.90;;;;;;5071030;28;20482;-70
2022/07/31 11:33:45;;;;;;;15.57;13.93;;;20.30;99.90;;;;;;5071392;28;20083;-70
2022/07/31 11:36:15;;;;;;;16.33;12.85;;;20.10;99.90;;;;;;5071272;28;20051;-70
2022/07/31 11:38:43;;;;;;;19.42;14.27;;;20.30;99.90;;;;;;5071286;28;20032;-70
2022/07/31 11:41:09;;;;;;;16.45;13.32;;;20.00;99.90;;;;;;5052750;28;20076;-70
2022/07/31 11:43:38;;;;;;;15.55;12.90;;;20.00;99.90;;;;;;5071139;28;20047;-70
2022/07/31 11:46:07;;;;;;;14.82;13.23;;;20.00;99.90;;;;;;5071106;28;20090;-71
2022/07/31 11:48:36;;;;;;;17.75;13.52;;;20.00;99.90;;;;;;5071002;28;20032;-71
2022/07/31 11:51:02;;;;;;;18.02;14.15;;;20.10;99.90;;;;;;5070794;28;20037;-71
2022/07/31 11:53:28;;;;;;;14.57;12.60;;;19.70;99.90;;;;;;5070969;28;20124;-71
2022/07/31 11:55:55;;;;;;;18.45;13.15;;;20.00;99.90;;;;;;5052900;28;20082;-70
2022/07/31 11:58:22;;;;;;;15.00;13.38;;;19.70;99.90;;;;;;5070953;28;20513;-70
2022/07/31 12:00:50;;;;;;;16.90;14.30;;;19.80;99.90;;;;;;5070865;28;20032;-71
2022/07/31 12:03:25;;;;;;;19.73;15.52;;;19.70;99.90;;;;;;5070981;28;20033;-74
2022/07/31 12:05:51;;;;;;;21.30;16.45;;;19.90;99.90;;;;;;5053324;28;20044;-70
2022/07/31 12:08:18;;;;;;;18.38;15.23;;;19.70;99.90;;;;;;5070761;28;20048;-71
2022/07/31 12:10:45;;;;;;;17.50;15.70;;;19.80;99.90;;;;;;5071442;28;20044;-71
2022/07/31 12:13:17;;;;;;;21.35;15.63;;;19.90;99.90;;;;;;5074589;28;20047;-70
2022/07/31 12:16:00;;;;;;;21.00;17.13;;;19.80;99.90;;;;;;5056608;28;20467;-71
2022/07/31 12:18:27;;;;;;;21.67;18.85;;;19.80;99.90;;;;;;5074334;28;20090;-71
2022/07/31 12:21:03;;;;;;;23.20;19.13;;;19.50;99.90;;;;;;5055991;28;20086;-71
2022/07/31 12:23:47;;;;;;;22.48;19.67;;;19.70;99.90;;;;;;5074582;28;20040;-71
2022/07/31 12:26:29;;;;;;;26.98;21.27;;;19.50;99.90;;;;;;5074354;28;20081;-70
2022/07/31 12:29:06;;;;;;;24.00;19.63;;;19.40;99.90;;;;;;5074267;28;20041;-70
2022/07/31 12:31:47;;;;;;;21.80;18.60;;;19.60;99.90;;;;;;5074095;28;20102;-71
2022/07/31 12:34:37;;;;;;;22.17;18.17;;;19.60;99.90;;;;;;5056108;28;20045;-71
2022/07/31 12:37:08;;;;;;;24.30;18.58;;;19.50;99.90;;;;;;5064934;28;20055;-70
2022/07/31 12:39:50;;;;;;;24.55;19.60;;;19.60;99.90;;;;;;5073535;28;20446;-73
2022/07/31 12:42:23;;;;;;;21.30;18.80;;;19.40;99.90;;;;;;5074082;28;20462;-70
2022/07/31 12:44:49;;;;;;;18.42;16.48;;;19.40;99.90;;;;;;5074053;28;20036;-71
2022/07/31 12:47:29;;;;;;;21.23;17.33;;;19.50;99.90;;;;;;5073856;28;20085;-71